sensor_id;sensor_type;location;lat;lon;timestamp;pressure;altitude;pressure_sealevel;temperature;humidity
77526;BME280;66627;29.424;-98.496;2023-07-20T00:01:27;98805.13;;;40.91;14.46
77526;BME280;66627;29.424;-98.496;2023-07-20T00:03:53;98800.96;;;40.76;14.45
77526;BME280;66627;29.424;-98.496;2023-07-20T00:06:18;98804.39;;;41.43;14.31
77526;BME280;66627;29.424;-98.496;2023-07-20T00:08:43;98805.22;;;41.02;14.82
77526;BME280;66627;29.424;-98.496;2023-07-20T00:11:08;98803.32;;;41.29;14.15
77526;BME280;66627;29.424;-98.496;2023-07-20T00:13:34;98805.09;;;40.76;14.43
77526;BME280;66627;29.424;-98.496;2023-07-20T00:15:59;98799.90;;;42.12;14.76
77526;BME280;66627;29.424;-98.496;2023-07-20T00:18:25;98800.50;;;41.02;15.75
77526;BME280;66627;29.424;-98.496;2023-07-20T00:20:50;98800.15;;;41.34;16.00
77526;BME280;66627;29.424;-98.496;2023-07-20T00:23:15;98804.38;;;40.12;16.53
77526;BME280;66627;29.424;-98.496;2023-07-20T00:25:40;98802.25;;;40.20;16.73
77526;BME280;66627;29.424;-98.496;2023-07-20T00:28:06;98808.02;;;39.91;17.31
77526;BME280;66627;29.424;-98.496;2023-07-20T00:30:31;98805.57;;;40.46;17.14
77526;BME280;66627;29.424;-98.496;2023-07-20T00:32:56;98804.58;;;38.95;17.68
77526;BME280;66627;29.424;-98.496;2023-07-20T00:35:22;98809.23;;;39.90;17.74
77526;BME280;66627;29.424;-98.496;2023-07-20T00:37:47;98806.13;;;38.97;18.05
77526;BME280;66627;29.424;-98.496;2023-07-20T00:40:12;98808.28;;;38.64;18.70
77526;BME280;66627;29.424;-98.496;2023-07-20T00:42:37;98811.25;;;38.79;18.77
77526;BME280;66627;29.424;-98.496;2023-07-20T00:45:03;98812.41;;;38.69;19.54
77526;BME280;66627;29.424;-98.496;2023-07-20T00:47:28;98814.58;;;38.74;19.79
77526;BME280;66627;29.424;-98.496;2023-07-20T00:49:54;98810.96;;;39.24;19.11
77526;BME280;66627;29.424;-98.496;2023-07-20T00:52:21;98809.76;;;39.08;19.37
77526;BME280;66627;29.424;-98.496;2023-07-20T00:54:45;98816.82;;;38.57;19.56
77526;BME280;66627;29.424;-98.496;2023-07-20T00:57:10;98812.60;;;38.63;19.51
77526;BME280;66627;29.424;-98.496;2023-07-20T00:59:35;98810.67;;;39.09;19.23
77526;BME280;66627;29.424;-98.496;2023-07-20T01:02:01;98814.15;;;38.36;19.66
77526;BME280;66627;29.424;-98.496;2023-07-20T01:04:27;98815.06;;;38.35;19.84
77526;BME280;66627;29.424;-98.496;2023-07-20T01:06:57;98819.31;;;38.59;19.57
77526;BME280;66627;29.424;-98.496;2023-07-20T01:09:19;98824.25;;;37.77;20.02
77526;BME280;66627;29.424;-98.496;2023-07-20T01:11:51;98826.70;;;38.18;19.92
77526;BME280;66627;29.424;-98.496;2023-07-20T01:14:08;98825.28;;;38.31;19.67
77526;BME280;66627;29.424;-98.496;2023-07-20T01:16:33;98827.45;;;38.42;19.50
77526;BME280;66627;29.424;-98.496;2023-07-20T01:18:59;98831.08;;;37.81;20.01
77526;BME280;66627;29.424;-98.496;2023-07-20T01:21:28;98832.03;;;37.50;20.53
77526;BME280;66627;29.424;-98.496;2023-07-20T01:26:25;98829.39;;;37.94;20.03
77526;BME280;66627;29.424;-98.496;2023-07-20T01:29:01;98832.28;;;37.49;20.47
77526;BME280;66627;29.424;-98.496;2023-07-20T01:31:17;98832.98;;;38.03;19.98
77526;BME280;66627;29.424;-98.496;2023-07-20T01:33:33;98842.99;;;37.45;20.46
77526;BME280;66627;29.424;-98.496;2023-07-20T01:35:58;98852.71;;;37.07;23.69
77526;BME280;66627;29.424;-98.496;2023-07-20T01:38:22;98851.76;;;36.40;26.50
77526;BME280;66627;29.424;-98.496;2023-07-20T01:40:47;98852.39;;;35.51;28.71
77526;BME280;66627;29.424;-98.496;2023-07-20T01:43:13;98858.23;;;35.69;29.64
77526;BME280;66627;29.424;-98.496;2023-07-20T01:45:38;98859.63;;;35.67;30.24
77526;BME280;66627;29.424;-98.496;2023-07-20T01:48:03;98866.84;;;35.62;31.30
77526;BME280;66627;29.424;-98.496;2023-07-20T01:50:28;98876.28;;;35.56;31.53
77526;BME280;66627;29.424;-98.496;2023-07-20T01:52:54;98878.62;;;35.62;31.76
77526;BME280;66627;29.424;-98.496;2023-07-20T01:55:19;98876.97;;;34.80;33.29
77526;BME280;66627;29.424;-98.496;2023-07-20T01:57:45;98878.53;;;34.59;33.83
77526;BME280;66627;29.424;-98.496;2023-07-20T02:00:10;98883.26;;;34.08;34.70
77526;BME280;66627;29.424;-98.496;2023-07-20T02:02:35;98891.00;;;34.79;33.95
77526;BME280;66627;29.424;-98.496;2023-07-20T02:05:01;98898.06;;;34.44;34.40
77526;BME280;66627;29.424;-98.496;2023-07-20T02:07:26;98899.34;;;34.63;34.26
77526;BME280;66627;29.424;-98.496;2023-07-20T02:09:51;98903.53;;;34.54;34.30
77526;BME280;66627;29.424;-98.496;2023-07-20T02:12:17;98907.73;;;34.41;34.41
77526;BME280;66627;29.424;-98.496;2023-07-20T02:14:42;98915.99;;;34.36;34.53
77526;BME280;66627;29.424;-98.496;2023-07-20T02:17:08;98918.85;;;34.08;34.89
77526;BME280;66627;29.424;-98.496;2023-07-20T02:19:34;98921.72;;;34.04;34.93
77526;BME280;66627;29.424;-98.496;2023-07-20T02:21:59;98921.16;;;33.91;35.11
77526;BME280;66627;29.424;-98.496;2023-07-20T02:24:25;98924.38;;;34.33;34.81
77526;BME280;66627;29.424;-98.496;2023-07-20T02:26:50;98925.69;;;34.22;35.13
77526;BME280;66627;29.424;-98.496;2023-07-20T02:29:16;98929.20;;;34.46;34.76
77526;BME280;66627;29.424;-98.496;2023-07-20T02:31:41;98930.18;;;33.77;35.37
77526;BME280;66627;29.424;-98.496;2023-07-20T02:34:07;98938.59;;;34.47;34.65
77526;BME280;66627;29.424;-98.496;2023-07-20T02:36:33;98934.35;;;34.11;35.14
77526;BME280;66627;29.424;-98.496;2023-07-20T02:38:58;98936.83;;;33.96;35.32
77526;BME280;66627;29.424;-98.496;2023-07-20T02:41:23;98940.70;;;33.79;35.29
77526;BME280;66627;29.424;-98.496;2023-07-20T02:43:49;98947.54;;;33.47;35.50
77526;BME280;66627;29.424;-98.496;2023-07-20T02:46:15;98943.25;;;34.07;35.10
77526;BME280;66627;29.424;-98.496;2023-07-20T02:48:39;98957.03;;;32.90;36.05
77526;BME280;66627;29.424;-98.496;2023-07-20T02:51:05;98956.42;;;33.00;35.94
77526;BME280;66627;29.424;-98.496;2023-07-20T02:53:30;98951.88;;;33.28;35.48
77526;BME280;66627;29.424;-98.496;2023-07-20T02:55:56;98955.42;;;33.29;35.43
77526;BME280;66627;29.424;-98.496;2023-07-20T02:58:21;98959.46;;;33.54;35.26
77526;BME280;66627;29.424;-98.496;2023-07-20T03:00:48;98964.45;;;33.70;34.91
77526;BME280;66627;29.424;-98.496;2023-07-20T03:03:12;98963.38;;;32.88;35.80
77526;BME280;66627;29.424;-98.496;2023-07-20T03:05:40;98970.42;;;32.59;35.74
77526;BME280;66627;29.424;-98.496;2023-07-20T03:08:03;98974.53;;;32.84;35.73
77526;BME280;66627;29.424;-98.496;2023-07-20T03:10:28;98973.77;;;33.08;35.33
77526;BME280;66627;29.424;-98.496;2023-07-20T03:12:53;98980.97;;;32.57;35.66
77526;BME280;66627;29.424;-98.496;2023-07-20T03:15:19;98982.86;;;32.92;35.76
77526;BME280;66627;29.424;-98.496;2023-07-20T03:17:44;98988.22;;;32.65;35.91
77526;BME280;66627;29.424;-98.496;2023-07-20T03:20:11;98996.22;;;32.84;35.81
77526;BME280;66627;29.424;-98.496;2023-07-20T03:22:36;98998.38;;;32.84;35.26
77526;BME280;66627;29.424;-98.496;2023-07-20T03:25:02;98998.76;;;32.62;35.61
77526;BME280;66627;29.424;-98.496;2023-07-20T03:27:26;99009.64;;;31.85;36.05
77526;BME280;66627;29.424;-98.496;2023-07-20T03:29:52;99011.62;;;32.52;35.33
77526;BME280;66627;29.424;-98.496;2023-07-20T03:32:18;99009.25;;;32.25;35.64
77526;BME280;66627;29.424;-98.496;2023-07-20T03:34:43;99013.67;;;32.43;35.31
77526;BME280;66627;29.424;-98.496;2023-07-20T03:37:09;99018.19;;;32.09;35.75
77526;BME280;66627;29.424;-98.496;2023-07-20T03:39:34;99024.83;;;31.80;36.03
77526;BME280;66627;29.424;-98.496;2023-07-20T03:42:00;99026.39;;;32.11;35.73
77526;BME280;66627;29.424;-98.496;2023-07-20T03:44:25;99033.42;;;31.97;35.13
77526;BME280;66627;29.424;-98.496;2023-07-20T03:46:50;99035.52;;;32.63;34.31
77526;BME280;66627;29.424;-98.496;2023-07-20T03:49:16;99037.77;;;32.10;34.76
77526;BME280;66627;29.424;-98.496;2023-07-20T03:51:42;99043.99;;;32.87;34.47
77526;BME280;66627;29.424;-98.496;2023-07-20T03:54:07;99047.89;;;31.44;35.29
77526;BME280;66627;29.424;-98.496;2023-07-20T03:56:32;99046.98;;;31.50;35.42
77526;BME280;66627;29.424;-98.496;2023-07-20T03:58:57;99046.46;;;32.02;34.91
77526;BME280;66627;29.424;-98.496;2023-07-20T04:01:23;99049.06;;;31.77;34.88
77526;BME280;66627;29.424;-98.496;2023-07-20T04:03:49;99058.86;;;31.79;35.21
77526;BME280;66627;29.424;-98.496;2023-07-20T04:06:14;99053.31;;;31.60;35.58
77526;BME280;66627;29.424;-98.496;2023-07-20T04:08:40;99055.77;;;32.17;35.11
77526;BME280;66627;29.424;-98.496;2023-07-20T04:11:06;99059.07;;;31.81;35.72
77526;BME280;66627;29.424;-98.496;2023-07-20T04:13:31;99062.04;;;31.64;35.69
77526;BME280;66627;29.424;-98.496;2023-07-20T04:15:55;99067.52;;;31.67;36.19
77526;BME280;66627;29.424;-98.496;2023-07-20T04:18:21;99068.62;;;31.65;36.65
77526;BME280;66627;29.424;-98.496;2023-07-20T04:20:47;99063.56;;;31.41;36.85
77526;BME280;66627;29.424;-98.496;2023-07-20T04:23:13;99068.78;;;31.24;37.11
77526;BME280;66627;29.424;-98.496;2023-07-20T04:25:40;99072.11;;;30.83;37.95
77526;BME280;66627;29.424;-98.496;2023-07-20T04:28:05;99078.47;;;31.90;37.01
77526;BME280;66627;29.424;-98.496;2023-07-20T04:30:33;99078.70;;;31.09;38.00
77526;BME280;66627;29.424;-98.496;2023-07-20T04:32:54;99083.47;;;30.87;38.64
77526;BME280;66627;29.424;-98.496;2023-07-20T04:37:45;99084.96;;;30.88;39.45
77526;BME280;66627;29.424;-98.496;2023-07-20T04:40:12;99095.62;;;30.83;40.13
77526;BME280;66627;29.424;-98.496;2023-07-20T04:42:36;99097.06;;;30.53;41.00
77526;BME280;66627;29.424;-98.496;2023-07-20T04:45:02;99099.08;;;31.25;39.44
77526;BME280;66627;29.424;-98.496;2023-07-20T04:47:33;99102.89;;;31.32;39.55
77526;BME280;66627;29.424;-98.496;2023-07-20T04:49:53;99104.04;;;30.90;40.36
77526;BME280;66627;29.424;-98.496;2023-07-20T04:52:18;99107.70;;;31.03;40.35
77526;BME280;66627;29.424;-98.496;2023-07-20T04:54:44;99107.86;;;31.21;40.52
77526;BME280;66627;29.424;-98.496;2023-07-20T04:57:12;99114.91;;;30.28;41.36
77526;BME280;66627;29.424;-98.496;2023-07-20T04:59:34;99114.58;;;30.77;40.95
77526;BME280;66627;29.424;-98.496;2023-07-20T05:02:00;99118.30;;;30.36;41.52
77526;BME280;66627;29.424;-98.496;2023-07-20T05:04:25;99121.86;;;30.16;42.26
77526;BME280;66627;29.424;-98.496;2023-07-20T05:06:51;99123.27;;;30.63;41.58
77526;BME280;66627;29.424;-98.496;2023-07-20T05:09:17;99121.46;;;30.10;42.17
77526;BME280;66627;29.424;-98.496;2023-07-20T05:11:42;99122.53;;;30.47;41.48
77526;BME280;66627;29.424;-98.496;2023-07-20T05:14:08;99122.95;;;30.51;41.41
77526;BME280;66627;29.424;-98.496;2023-07-20T05:16:33;99124.42;;;30.72;41.13
77526;BME280;66627;29.424;-98.496;2023-07-20T05:18:59;99129.36;;;29.94;42.05
77526;BME280;66627;29.424;-98.496;2023-07-20T05:21:24;99134.01;;;29.39;43.58
77526;BME280;66627;29.424;-98.496;2023-07-20T05:23:49;99129.86;;;30.18;43.01
77526;BME280;66627;29.424;-98.496;2023-07-20T05:26:15;99131.99;;;30.14;43.27
77526;BME280;66627;29.424;-98.496;2023-07-20T05:28:40;99132.13;;;29.37;44.65
77526;BME280;66627;29.424;-98.496;2023-07-20T05:31:06;99137.25;;;30.27;44.12
77526;BME280;66627;29.424;-98.496;2023-07-20T05:33:31;99133.44;;;30.33;43.26
77526;BME280;66627;29.424;-98.496;2023-07-20T05:35:56;99134.60;;;30.15;43.72
77526;BME280;66627;29.424;-98.496;2023-07-20T05:38:21;99131.70;;;30.23;43.76
77526;BME280;66627;29.424;-98.496;2023-07-20T05:40:47;99131.92;;;29.37;45.08
77526;BME280;66627;29.424;-98.496;2023-07-20T05:43:13;99138.63;;;29.49;45.10
77526;BME280;66627;29.424;-98.496;2023-07-20T05:45:41;99142.17;;;30.35;43.51
77526;BME280;66627;29.424;-98.496;2023-07-20T05:48:04;99148.69;;;29.87;44.15
77526;BME280;66627;29.424;-98.496;2023-07-20T05:50:29;99152.57;;;29.49;45.14
77526;BME280;66627;29.424;-98.496;2023-07-20T05:52:55;99154.07;;;29.72;45.43
77526;BME280;66627;29.424;-98.496;2023-07-20T05:55:19;99156.00;;;29.89;45.80
77526;BME280;66627;29.424;-98.496;2023-07-20T05:57:45;99161.50;;;29.53;46.12
77526;BME280;66627;29.424;-98.496;2023-07-20T06:00:11;99160.19;;;30.61;44.78
77526;BME280;66627;29.424;-98.496;2023-07-20T06:02:36;99159.42;;;30.69;44.64
77526;BME280;66627;29.424;-98.496;2023-07-20T06:05:02;99162.17;;;29.99;45.79
77526;BME280;66627;29.424;-98.496;2023-07-20T06:07:27;99161.74;;;29.95;45.89
77526;BME280;66627;29.424;-98.496;2023-07-20T06:09:52;99157.60;;;29.87;46.02
77526;BME280;66627;29.424;-98.496;2023-07-20T06:12:18;99157.01;;;29.92;45.56
77526;BME280;66627;29.424;-98.496;2023-07-20T06:14:44;99159.29;;;29.26;46.42
77526;BME280;66627;29.424;-98.496;2023-07-20T06:17:10;99156.80;;;29.84;45.41
77526;BME280;66627;29.424;-98.496;2023-07-20T06:19:35;99160.09;;;29.91;46.11
77526;BME280;66627;29.424;-98.496;2023-07-20T06:22:01;99158.60;;;29.17;46.58
77526;BME280;66627;29.424;-98.496;2023-07-20T06:24:36;99157.15;;;29.25;46.87
77526;BME280;66627;29.424;-98.496;2023-07-20T06:26:52;99156.00;;;29.37;46.37
77526;BME280;66627;29.424;-98.496;2023-07-20T06:29:19;99149.99;;;29.72;46.40
77526;BME280;66627;29.424;-98.496;2023-07-20T06:31:43;99152.57;;;29.04;46.77
77526;BME280;66627;29.424;-98.496;2023-07-20T06:34:08;99154.09;;;28.86;47.49
77526;BME280;66627;29.424;-98.496;2023-07-20T06:36:33;99155.15;;;29.05;47.38
77526;BME280;66627;29.424;-98.496;2023-07-20T06:38:59;99157.59;;;28.89;47.55
77526;BME280;66627;29.424;-98.496;2023-07-20T06:41:24;99159.30;;;29.11;47.31
77526;BME280;66627;29.424;-98.496;2023-07-20T06:43:51;99155.11;;;28.42;48.92
77526;BME280;66627;29.424;-98.496;2023-07-20T06:46:15;99160.17;;;28.54;49.19
77526;BME280;66627;29.424;-98.496;2023-07-20T06:48:41;99160.56;;;29.55;47.03
77526;BME280;66627;29.424;-98.496;2023-07-20T06:51:06;99161.56;;;29.63;46.87
77526;BME280;66627;29.424;-98.496;2023-07-20T06:53:32;99162.17;;;29.44;47.10
77526;BME280;66627;29.424;-98.496;2023-07-20T06:55:57;99166.57;;;28.74;47.78
77526;BME280;66627;29.424;-98.496;2023-07-20T06:58:22;99167.09;;;29.90;46.31
77526;BME280;66627;29.424;-98.496;2023-07-20T07:00:47;99167.72;;;29.54;47.08
77526;BME280;66627;29.424;-98.496;2023-07-20T07:03:13;99163.76;;;29.28;47.55
77526;BME280;66627;29.424;-98.496;2023-07-20T07:05:39;99161.30;;;29.02;48.01
77526;BME280;66627;29.424;-98.496;2023-07-20T07:08:05;99164.09;;;29.08;48.35
77526;BME280;66627;29.424;-98.496;2023-07-20T07:10:29;99162.46;;;28.86;48.46
77526;BME280;66627;29.424;-98.496;2023-07-20T07:12:54;99162.07;;;28.48;49.46
77526;BME280;66627;29.424;-98.496;2023-07-20T07:15:20;99162.89;;;28.77;48.23
77526;BME280;66627;29.424;-98.496;2023-07-20T07:17:45;99165.74;;;28.73;48.81
77526;BME280;66627;29.424;-98.496;2023-07-20T07:20:11;99171.85;;;28.96;48.97
77526;BME280;66627;29.424;-98.496;2023-07-20T07:22:36;99171.61;;;28.70;48.92
77526;BME280;66627;29.424;-98.496;2023-07-20T07:25:01;99180.16;;;29.26;48.14
77526;BME280;66627;29.424;-98.496;2023-07-20T07:27:27;99180.45;;;28.89;49.11
77526;BME280;66627;29.424;-98.496;2023-07-20T07:29:52;99180.45;;;29.43;47.93
77526;BME280;66627;29.424;-98.496;2023-07-20T07:32:18;99181.76;;;28.30;49.67
77526;BME280;66627;29.424;-98.496;2023-07-20T07:34:45;99182.77;;;28.91;49.16
77526;BME280;66627;29.424;-98.496;2023-07-20T07:37:10;99185.90;;;29.21;48.98
77526;BME280;66627;29.424;-98.496;2023-07-20T07:39:35;99190.17;;;29.26;48.93
77526;BME280;66627;29.424;-98.496;2023-07-20T07:42:01;99190.02;;;29.47;48.69
77526;BME280;66627;29.424;-98.496;2023-07-20T07:44:27;99189.23;;;28.90;49.24
77526;BME280;66627;29.424;-98.496;2023-07-20T07:46:52;99190.26;;;29.21;48.69
77526;BME280;66627;29.424;-98.496;2023-07-20T07:49:18;99193.22;;;28.62;50.22
77526;BME280;66627;29.424;-98.496;2023-07-20T07:51:43;99197.99;;;28.62;50.27
77526;BME280;66627;29.424;-98.496;2023-07-20T07:54:08;99196.87;;;28.70;49.41
77526;BME280;66627;29.424;-98.496;2023-07-20T07:56:33;99198.20;;;29.29;49.15
77526;BME280;66627;29.424;-98.496;2023-07-20T07:59:00;99195.49;;;27.91;51.22
77526;BME280;66627;29.424;-98.496;2023-07-20T08:01:25;99194.63;;;28.58;50.14
77526;BME280;66627;29.424;-98.496;2023-07-20T08:03:50;99193.63;;;29.01;49.70
77526;BME280;66627;29.424;-98.496;2023-07-20T08:06:16;99191.67;;;29.60;48.67
77526;BME280;66627;29.424;-98.496;2023-07-20T08:08:42;99189.57;;;29.11;49.22
77526;BME280;66627;29.424;-98.496;2023-07-20T08:11:07;99193.42;;;28.63;50.07
77526;BME280;66627;29.424;-98.496;2023-07-20T08:13:32;99199.98;;;28.68;50.56
77526;BME280;66627;29.424;-98.496;2023-07-20T08:15:57;99201.64;;;28.71;50.39
77526;BME280;66627;29.424;-98.496;2023-07-20T08:18:23;99201.19;;;28.14;51.50
77526;BME280;66627;29.424;-98.496;2023-07-20T08:20:48;99203.93;;;28.71;50.54
77526;BME280;66627;29.424;-98.496;2023-07-20T08:23:13;99204.07;;;29.11;50.21
77526;BME280;66627;29.424;-98.496;2023-07-20T08:25:39;99206.81;;;28.97;49.99
77526;BME280;66627;29.424;-98.496;2023-07-20T08:28:04;99204.76;;;28.84;49.85
77526;BME280;66627;29.424;-98.496;2023-07-20T08:30:40;99201.20;;;28.87;50.27
77526;BME280;66627;29.424;-98.496;2023-07-20T08:32:55;99194.99;;;28.47;51.09
77526;BME280;66627;29.424;-98.496;2023-07-20T08:35:20;99190.89;;;28.25;51.35
77526;BME280;66627;29.424;-98.496;2023-07-20T08:37:46;99187.87;;;28.87;49.98
77526;BME280;66627;29.424;-98.496;2023-07-20T08:40:13;99192.05;;;28.71;51.21
77526;BME280;66627;29.424;-98.496;2023-07-20T08:42:37;99197.27;;;28.67;50.26
77526;BME280;66627;29.424;-98.496;2023-07-20T08:45:01;99197.62;;;28.83;50.06
77526;BME280;66627;29.424;-98.496;2023-07-20T08:47:27;99205.12;;;29.33;48.98
77526;BME280;66627;29.424;-98.496;2023-07-20T08:49:52;99205.72;;;28.92;50.09
77526;BME280;66627;29.424;-98.496;2023-07-20T08:52:17;99213.08;;;29.53;49.00
77526;BME280;66627;29.424;-98.496;2023-07-20T08:54:42;99210.80;;;27.54;52.58
77526;BME280;66627;29.424;-98.496;2023-07-20T08:57:09;99210.96;;;28.12;51.74
77526;BME280;66627;29.424;-98.496;2023-07-20T08:59:36;99210.81;;;28.14;51.83
77526;BME280;66627;29.424;-98.496;2023-07-20T09:02:00;99213.84;;;29.19;50.19
77526;BME280;66627;29.424;-98.496;2023-07-20T09:04:24;99208.61;;;27.96;52.22
77526;BME280;66627;29.424;-98.496;2023-07-20T09:06:50;99207.45;;;28.49;51.31
77526;BME280;66627;29.424;-98.496;2023-07-20T09:09:15;99206.09;;;28.71;50.86
77526;BME280;66627;29.424;-98.496;2023-07-20T09:11:41;99202.94;;;28.50;51.09
77526;BME280;66627;29.424;-98.496;2023-07-20T09:14:07;99200.55;;;28.34;51.44
77526;BME280;66627;29.424;-98.496;2023-07-20T09:16:31;99198.72;;;28.63;50.98
77526;BME280;66627;29.424;-98.496;2023-07-20T09:18:59;99198.36;;;27.70;52.62
77526;BME280;66627;29.424;-98.496;2023-07-20T09:21:22;99192.85;;;28.46;51.71
77526;BME280;66627;29.424;-98.496;2023-07-20T09:23:48;99188.09;;;28.11;51.85
77526;BME280;66627;29.424;-98.496;2023-07-20T09:26:14;99184.60;;;28.04;52.28
77526;BME280;66627;29.424;-98.496;2023-07-20T09:28:43;99184.83;;;27.18;53.74
77526;BME280;66627;29.424;-98.496;2023-07-20T09:33:29;99186.94;;;27.31;53.98
77526;BME280;66627;29.424;-98.496;2023-07-20T09:35:54;99191.74;;;27.83;52.53
77526;BME280;66627;29.424;-98.496;2023-07-20T09:38:20;99190.07;;;26.66;54.81
77526;BME280;66627;29.424;-98.496;2023-07-20T09:40:45;99189.78;;;27.65;53.23
77526;BME280;66627;29.424;-98.496;2023-07-20T09:43:11;99188.77;;;28.07;52.46
77526;BME280;66627;29.424;-98.496;2023-07-20T09:45:39;99181.60;;;26.67;54.69
77526;BME280;66627;29.424;-98.496;2023-07-20T09:48:04;99180.35;;;26.64;55.20
77526;BME280;66627;29.424;-98.496;2023-07-20T09:50:26;99179.96;;;26.75;54.52
77526;BME280;66627;29.424;-98.496;2023-07-20T09:52:52;99180.40;;;26.37;55.31
77526;BME280;66627;29.424;-98.496;2023-07-20T09:55:18;99177.97;;;27.71;53.20
77526;BME280;66627;29.424;-98.496;2023-07-20T09:57:43;99177.16;;;26.68;54.59
77526;BME280;66627;29.424;-98.496;2023-07-20T10:00:09;99179.91;;;27.38;54.36
77526;BME280;66627;29.424;-98.496;2023-07-20T10:02:36;99180.84;;;27.21;54.02
77526;BME280;66627;29.424;-98.496;2023-07-20T10:05:03;99183.24;;;27.88;52.89
77526;BME280;66627;29.424;-98.496;2023-07-20T10:07:28;99184.94;;;26.79;54.92
77526;BME280;66627;29.424;-98.496;2023-07-20T10:09:53;99181.85;;;27.01;54.54
77526;BME280;66627;29.424;-98.496;2023-07-20T10:12:17;99181.85;;;26.39;55.28
77526;BME280;66627;29.424;-98.496;2023-07-20T10:14:47;99181.89;;;27.73;53.50
77526;BME280;66627;29.424;-98.496;2023-07-20T10:17:08;99175.48;;;26.87;54.16
77526;BME280;66627;29.424;-98.496;2023-07-20T10:19:38;99174.00;;;26.88;54.75
77526;BME280;66627;29.424;-98.496;2023-07-20T10:22:00;99173.81;;;27.76;53.58
77526;BME280;66627;29.424;-98.496;2023-07-20T10:24:23;99174.25;;;27.19;54.27
77526;BME280;66627;29.424;-98.496;2023-07-20T10:26:48;99166.22;;;27.36;54.34
77526;BME280;66627;29.424;-98.496;2023-07-20T10:29:14;99163.99;;;27.66;53.79
77526;BME280;66627;29.424;-98.496;2023-07-20T10:31:39;99161.18;;;26.84;54.29
77526;BME280;66627;29.424;-98.496;2023-07-20T10:34:05;99160.85;;;26.69;55.72
77526;BME280;66627;29.424;-98.496;2023-07-20T10:36:29;99162.21;;;27.85;53.69
77526;BME280;66627;29.424;-98.496;2023-07-20T10:38:55;99162.71;;;28.47;52.36
77526;BME280;66627;29.424;-98.496;2023-07-20T10:41:21;99167.13;;;27.85;53.10
77526;BME280;66627;29.424;-98.496;2023-07-20T10:43:46;99168.75;;;28.03;51.89
77526;BME280;66627;29.424;-98.496;2023-07-20T10:46:12;99173.07;;;26.58;55.40
77526;BME280;66627;29.424;-98.496;2023-07-20T10:51:12;99174.91;;;26.74;55.12
77526;BME280;66627;29.424;-98.496;2023-07-20T10:53:27;99176.87;;;27.07;55.40
77526;BME280;66627;29.424;-98.496;2023-07-20T10:56:06;99180.28;;;27.57;53.85
77526;BME280;66627;29.424;-98.496;2023-07-20T10:58:18;99184.92;;;26.31;56.52
77526;BME280;66627;29.424;-98.496;2023-07-20T11:00:57;99185.98;;;27.25;55.07
77526;BME280;66627;29.424;-98.496;2023-07-20T11:03:08;99188.31;;;26.80;54.98
77526;BME280;66627;29.424;-98.496;2023-07-20T11:05:36;99194.96;;;27.15;54.74
77526;BME280;66627;29.424;-98.496;2023-07-20T11:07:59;99192.11;;;27.57;54.40
77526;BME280;66627;29.424;-98.496;2023-07-20T11:10:24;99197.70;;;27.90;53.08
77526;BME280;66627;29.424;-98.496;2023-07-20T11:15:15;99205.16;;;27.75;53.81
77526;BME280;66627;29.424;-98.496;2023-07-20T11:17:41;99207.60;;;27.80;53.75
77526;BME280;66627;29.424;-98.496;2023-07-20T11:20:07;99206.07;;;27.38;54.06
77526;BME280;66627;29.424;-98.496;2023-07-20T11:22:32;99211.43;;;28.33;52.84
77526;BME280;66627;29.424;-98.496;2023-07-20T11:24:58;99209.70;;;28.43;52.37
77526;BME280;66627;29.424;-98.496;2023-07-20T11:27:23;99206.20;;;28.33;51.55
77526;BME280;66627;29.424;-98.496;2023-07-20T11:29:48;99205.06;;;28.58;52.22
77526;BME280;66627;29.424;-98.496;2023-07-20T11:32:20;99205.45;;;27.42;53.46
77526;BME280;66627;29.424;-98.496;2023-07-20T11:34:40;99196.57;;;28.36;51.66
77526;BME280;66627;29.424;-98.496;2023-07-20T11:37:06;99198.30;;;28.81;50.71
77526;BME280;66627;29.424;-98.496;2023-07-20T11:39:30;99197.61;;;28.42;51.15
77526;BME280;66627;29.424;-98.496;2023-07-20T11:41:56;99195.38;;;28.14;51.49
77526;BME280;66627;29.424;-98.496;2023-07-20T11:44:22;99197.36;;;27.99;52.36
77526;BME280;66627;29.424;-98.496;2023-07-20T11:46:46;99196.60;;;27.78;52.91
77526;BME280;66627;29.424;-98.496;2023-07-20T11:49:14;99198.26;;;27.93;52.51
77526;BME280;66627;29.424;-98.496;2023-07-20T11:51:36;99198.13;;;27.87;52.77
77526;BME280;66627;29.424;-98.496;2023-07-20T11:54:03;99198.57;;;28.13;52.30
77526;BME280;66627;29.424;-98.496;2023-07-20T11:56:28;99200.70;;;28.58;51.73
77526;BME280;66627;29.424;-98.496;2023-07-20T11:58:56;99203.74;;;28.47;51.24
77526;BME280;66627;29.424;-98.496;2023-07-20T12:01:19;99203.48;;;28.42;51.41
77526;BME280;66627;29.424;-98.496;2023-07-20T12:03:44;99213.59;;;27.68;52.47
77526;BME280;66627;29.424;-98.496;2023-07-20T12:06:10;99212.03;;;28.41;52.07
77526;BME280;66627;29.424;-98.496;2023-07-20T12:08:35;99217.74;;;27.88;53.13
77526;BME280;66627;29.424;-98.496;2023-07-20T12:11:00;99212.98;;;28.66;51.57
77526;BME280;66627;29.424;-98.496;2023-07-20T12:13:36;99217.31;;;27.34;53.69
77526;BME280;66627;29.424;-98.496;2023-07-20T12:15:53;99217.77;;;28.13;52.38
77526;BME280;66627;29.424;-98.496;2023-07-20T12:18:17;99217.00;;;28.07;52.47
77526;BME280;66627;29.424;-98.496;2023-07-20T12:20:43;99217.86;;;28.64;52.38
77526;BME280;66627;29.424;-98.496;2023-07-20T12:23:10;99219.96;;;28.80;51.19
77526;BME280;66627;29.424;-98.496;2023-07-20T12:25:38;99218.64;;;28.41;52.47
77526;BME280;66627;29.424;-98.496;2023-07-20T12:28:01;99223.82;;;27.96;52.77
77526;BME280;66627;29.424;-98.496;2023-07-20T12:30:24;99228.54;;;28.32;52.27
77526;BME280;66627;29.424;-98.496;2023-07-20T12:32:49;99228.31;;;28.24;52.34
77526;BME280;66627;29.424;-98.496;2023-07-20T12:35:15;99234.71;;;28.16;52.77
77526;BME280;66627;29.424;-98.496;2023-07-20T12:37:40;99237.02;;;28.65;51.63
77526;BME280;66627;29.424;-98.496;2023-07-20T12:40:07;99245.00;;;27.88;53.32
77526;BME280;66627;29.424;-98.496;2023-07-20T12:42:31;99248.42;;;28.56;51.89